Terminal Aerodrome Forecast
Issued by NWS Shreveport, LA

Home | Current Version | Previous Version | Text Only | Print | Product List | Glossary On
Versions: 1 2 3 4 5 6 7 8 9 10 11 12 13 14 15
698
FTUS44 KSHV 192321
TAFSHV
TAF
KSHV 192321Z 2000/2024 17005KT P6SM SCT045 SCT250
      TEMPO 2009/2012 3SM BR BKN003
     FM201200 18005KT 3SM BR OVC003
     FM201400 20008KT P6SM OVC010
     FM201600 20008KT P6SM BKN025
     FM202000 18007KT P6SM SCT040=

USA.gov is the U.S. government's official web portal to all federal, state and local government web resources and services.